sensor_id;sensor_type;location;lat;lon;timestamp;pressure;altitude;pressure_sealevel;temperature;humidity
74627;BME280;63132;52.268;5.192;2023-04-15T00:01:59;100845.50;;;5.98;67.00
74627;BME280;63132;52.268;5.192;2023-04-15T00:04:24;100856.44;;;5.91;67.09
74627;BME280;63132;52.268;5.192;2023-04-15T00:06:51;100851.25;;;5.90;67.90
74627;BME280;63132;52.268;5.192;2023-04-15T00:09:19;100849.84;;;5.84;68.13
74627;BME280;63132;52.268;5.192;2023-04-15T00:11:45;100849.13;;;5.80;68.39
74627;BME280;63132;52.268;5.192;2023-04-15T00:14:11;100848.47;;;5.77;69.41
74627;BME280;63132;52.268;5.192;2023-04-15T00:16:37;100851.56;;;5.69;70.12
74627;BME280;63132;52.268;5.192;2023-04-15T00:19:03;100850.91;;;5.65;70.13
74627;BME280;63132;52.268;5.192;2023-04-15T00:21:29;100842.97;;;5.65;69.70
74627;BME280;63132;52.268;5.192;2023-04-15T00:23:55;100850.13;;;5.63;69.63
74627;BME280;63132;52.268;5.192;2023-04-15T00:26:20;100847.72;;;5.75;69.50
74627;BME280;63132;52.268;5.192;2023-04-15T00:28:46;100844.59;;;5.68;70.75
74627;BME280;63132;52.268;5.192;2023-04-15T00:31:12;100847.25;;;5.68;70.55
74627;BME280;63132;52.268;5.192;2023-04-15T00:33:37;100840.41;;;5.80;69.22
74627;BME280;63132;52.268;5.192;2023-04-15T00:36:03;100836.22;;;5.76;69.43
74627;BME280;63132;52.268;5.192;2023-04-15T00:38:29;100842.38;;;5.76;69.44
74627;BME280;63132;52.268;5.192;2023-04-15T00:40:55;100846.69;;;5.77;69.65
74627;BME280;63132;52.268;5.192;2023-04-15T00:43:21;100839.44;;;5.81;68.89
74627;BME280;63132;52.268;5.192;2023-04-15T00:45:46;100845.94;;;5.75;69.24
74627;BME280;63132;52.268;5.192;2023-04-15T00:48:12;100844.41;;;5.71;69.89
74627;BME280;63132;52.268;5.192;2023-04-15T00:50:38;100854.81;;;5.74;70.43
74627;BME280;63132;52.268;5.192;2023-04-15T00:53:03;100848.34;;;5.64;71.23
74627;BME280;63132;52.268;5.192;2023-04-15T00:55:28;100851.34;;;5.57;71.34
74627;BME280;63132;52.268;5.192;2023-04-15T00:57:55;100851.34;;;5.57;70.53
74627;BME280;63132;52.268;5.192;2023-04-15T01:00:21;100849.88;;;5.68;69.93
74627;BME280;63132;52.268;5.192;2023-04-15T01:02:46;100846.00;;;5.59;70.63
74627;BME280;63132;52.268;5.192;2023-04-15T01:05:12;100851.72;;;5.51;71.10
74627;BME280;63132;52.268;5.192;2023-04-15T01:07:38;100852.81;;;5.47;71.86
74627;BME280;63132;52.268;5.192;2023-04-15T01:10:04;100859.31;;;5.41;71.04
74627;BME280;63132;52.268;5.192;2023-04-15T01:12:31;100850.75;;;5.52;70.44
74627;BME280;63132;52.268;5.192;2023-04-15T01:14:58;100846.88;;;5.43;70.53
74627;BME280;63132;52.268;5.192;2023-04-15T01:17:24;100849.75;;;5.39;70.78
74627;BME280;63132;52.268;5.192;2023-04-15T01:19:50;100856.34;;;5.31;71.93
74627;BME280;63132;52.268;5.192;2023-04-15T01:22:16;100857.53;;;5.42;70.10
74627;BME280;63132;52.268;5.192;2023-04-15T01:24:50;100853.34;;;5.38;70.26
74627;BME280;63132;52.268;5.192;2023-04-15T01:27:20;100855.41;;;5.32;70.83
74627;BME280;63132;52.268;5.192;2023-04-15T01:29:46;100857.38;;;5.13;72.26
74627;BME280;63132;52.268;5.192;2023-04-15T01:32:11;100857.72;;;5.06;71.87
74627;BME280;63132;52.268;5.192;2023-04-15T01:34:37;100859.16;;;5.12;71.98
74627;BME280;63132;52.268;5.192;2023-04-15T01:37:02;100857.38;;;5.13;71.96
74627;BME280;63132;52.268;5.192;2023-04-15T01:39:27;100859.84;;;5.00;72.34
74627;BME280;63132;52.268;5.192;2023-04-15T01:41:53;100858.06;;;5.00;72.10
74627;BME280;63132;52.268;5.192;2023-04-15T01:44:18;100856.69;;;5.09;72.28
74627;BME280;63132;52.268;5.192;2023-04-15T01:46:44;100855.59;;;4.97;72.08
74627;BME280;63132;52.268;5.192;2023-04-15T01:49:09;100866.91;;;4.99;72.28
74627;BME280;63132;52.268;5.192;2023-04-15T01:51:34;100863.69;;;4.94;72.91
74627;BME280;63132;52.268;5.192;2023-04-15T01:54:00;100861.13;;;4.92;72.94
74627;BME280;63132;52.268;5.192;2023-04-15T01:56:25;100864.09;;;4.86;73.23
74627;BME280;63132;52.268;5.192;2023-04-15T01:58:51;100862.38;;;4.85;73.29
74627;BME280;63132;52.268;5.192;2023-04-15T02:01:17;100859.25;;;4.78;74.09
74627;BME280;63132;52.268;5.192;2023-04-15T02:03:44;100861.56;;;4.84;73.45
74627;BME280;63132;52.268;5.192;2023-04-15T02:06:09;100865.09;;;4.83;73.71
74627;BME280;63132;52.268;5.192;2023-04-15T02:08:35;100866.41;;;4.92;73.70
74627;BME280;63132;52.268;5.192;2023-04-15T02:11:00;100859.84;;;4.83;74.35
74627;BME280;63132;52.268;5.192;2023-04-15T02:13:26;100865.78;;;4.87;74.27
74627;BME280;63132;52.268;5.192;2023-04-15T02:15:51;100863.66;;;4.78;74.80
74627;BME280;63132;52.268;5.192;2023-04-15T02:18:17;100873.28;;;4.79;74.74
74627;BME280;63132;52.268;5.192;2023-04-15T02:20:42;100869.28;;;4.88;74.62
74627;BME280;63132;52.268;5.192;2023-04-15T02:23:08;100874.47;;;4.89;74.80
74627;BME280;63132;52.268;5.192;2023-04-15T02:25:34;100873.69;;;4.87;75.13
74627;BME280;63132;52.268;5.192;2023-04-15T02:27:59;100873.28;;;4.79;75.27
74627;BME280;63132;52.268;5.192;2023-04-15T02:30:24;100876.16;;;4.74;76.04
74627;BME280;63132;52.268;5.192;2023-04-15T02:32:51;100875.81;;;4.80;75.57
74627;BME280;63132;52.268;5.192;2023-04-15T02:35:16;100882.78;;;4.81;75.60
74627;BME280;63132;52.268;5.192;2023-04-15T02:37:44;100884.25;;;5.03;75.57
74627;BME280;63132;52.268;5.192;2023-04-15T02:40:10;100885.13;;;5.04;75.59
74627;BME280;63132;52.268;5.192;2023-04-15T02:42:37;100887.75;;;5.04;75.22
74627;BME280;63132;52.268;5.192;2023-04-15T02:45:03;100885.03;;;5.05;75.60
74627;BME280;63132;52.268;5.192;2023-04-15T02:47:28;100890.44;;;5.02;75.86
74627;BME280;63132;52.268;5.192;2023-04-15T02:49:54;100890.44;;;5.02;75.96
74627;BME280;63132;52.268;5.192;2023-04-15T02:52:19;100888.44;;;5.07;75.85
74627;BME280;63132;52.268;5.192;2023-04-15T02:54:45;100897.44;;;5.03;76.26
74627;BME280;63132;52.268;5.192;2023-04-15T02:57:10;100895.59;;;5.05;76.01
74627;BME280;63132;52.268;5.192;2023-04-15T02:59:37;100900.50;;;4.95;76.81
74627;BME280;63132;52.268;5.192;2023-04-15T03:02:03;100904.78;;;4.98;76.54
74627;BME280;63132;52.268;5.192;2023-04-15T03:04:31;100899.81;;;4.92;76.44
74627;BME280;63132;52.268;5.192;2023-04-15T03:06:56;100899.47;;;4.82;77.42
74627;BME280;63132;52.268;5.192;2023-04-15T03:09:22;100902.28;;;4.79;77.59
74627;BME280;63132;52.268;5.192;2023-04-15T03:11:47;100909.91;;;4.83;77.49
74627;BME280;63132;52.268;5.192;2023-04-15T03:14:13;100900.00;;;4.89;77.79
74627;BME280;63132;52.268;5.192;2023-04-15T03:16:38;100906.72;;;4.94;77.01
74627;BME280;63132;52.268;5.192;2023-04-15T03:19:03;100906.28;;;4.86;77.74
74627;BME280;63132;52.268;5.192;2023-04-15T03:21:29;100907.47;;;4.80;78.22
74627;BME280;63132;52.268;5.192;2023-04-15T03:23:56;100907.94;;;4.71;78.18
74627;BME280;63132;52.268;5.192;2023-04-15T03:26:29;100915.69;;;4.74;78.42
74627;BME280;63132;52.268;5.192;2023-04-15T03:28:54;100919.69;;;4.81;78.15
74627;BME280;63132;52.268;5.192;2023-04-15T03:31:20;100915.09;;;4.69;78.51
74627;BME280;63132;52.268;5.192;2023-04-15T03:33:46;100927.50;;;4.67;78.51
74627;BME280;63132;52.268;5.192;2023-04-15T03:36:11;100923.84;;;4.69;78.97
74627;BME280;63132;52.268;5.192;2023-04-15T03:38:36;100918.66;;;4.68;78.80
74627;BME280;63132;52.268;5.192;2023-04-15T03:41:02;100915.50;;;4.61;79.43
74627;BME280;63132;52.268;5.192;2023-04-15T03:43:27;100930.78;;;4.54;79.63
74627;BME280;63132;52.268;5.192;2023-04-15T03:45:53;100928.84;;;4.58;79.53
74627;BME280;63132;52.268;5.192;2023-04-15T03:48:18;100936.13;;;4.53;80.07
74627;BME280;63132;52.268;5.192;2023-04-15T03:50:44;100939.28;;;4.59;80.15
74627;BME280;63132;52.268;5.192;2023-04-15T03:53:09;100938.44;;;4.59;79.75
74627;BME280;63132;52.268;5.192;2023-04-15T03:55:34;100947.38;;;4.56;80.39
74627;BME280;63132;52.268;5.192;2023-04-15T03:58:00;100943.31;;;4.49;80.50
74627;BME280;63132;52.268;5.192;2023-04-15T04:00:25;100949.84;;;4.42;80.38
74627;BME280;63132;52.268;5.192;2023-04-15T04:02:51;100948.47;;;4.34;80.91
74627;BME280;63132;52.268;5.192;2023-04-15T04:05:16;100954.44;;;4.38;81.58
74627;BME280;63132;52.268;5.192;2023-04-15T04:07:42;100959.47;;;4.43;81.04
74627;BME280;63132;52.268;5.192;2023-04-15T04:10:07;100955.13;;;4.42;81.17
74627;BME280;63132;52.268;5.192;2023-04-15T04:12:33;100963.31;;;4.35;81.47
74627;BME280;63132;52.268;5.192;2023-04-15T04:14:58;100962.28;;;4.22;81.68
74627;BME280;63132;52.268;5.192;2023-04-15T04:17:24;100964.50;;;4.30;81.76
74627;BME280;63132;52.268;5.192;2023-04-15T04:19:49;100972.81;;;4.22;82.19
74627;BME280;63132;52.268;5.192;2023-04-15T04:22:15;100975.19;;;4.26;81.88
74627;BME280;63132;52.268;5.192;2023-04-15T04:24:40;100973.72;;;4.21;82.57
74627;BME280;63132;52.268;5.192;2023-04-15T04:27:05;100974.66;;;4.20;82.56
74627;BME280;63132;52.268;5.192;2023-04-15T04:29:31;100975.56;;;4.19;82.97
74627;BME280;63132;52.268;5.192;2023-04-15T04:31:56;100976.53;;;4.18;82.92
74627;BME280;63132;52.268;5.192;2023-04-15T04:34:22;100987.38;;;4.29;82.55
74627;BME280;63132;52.268;5.192;2023-04-15T04:36:47;100983.34;;;4.22;82.77
74627;BME280;63132;52.268;5.192;2023-04-15T04:39:13;100994.63;;;4.24;82.66
74627;BME280;63132;52.268;5.192;2023-04-15T04:41:38;100989.53;;;4.21;82.70
74627;BME280;63132;52.268;5.192;2023-04-15T04:44:03;100994.94;;;4.18;82.83
74627;BME280;63132;52.268;5.192;2023-04-15T04:46:29;101006.59;;;4.31;82.30
74627;BME280;63132;52.268;5.192;2023-04-15T04:48:54;101019.88;;;4.28;82.27
74627;BME280;63132;52.268;5.192;2023-04-15T04:51:20;101020.53;;;4.33;82.31
74627;BME280;63132;52.268;5.192;2023-04-15T04:53:45;101023.09;;;4.35;81.94
74627;BME280;63132;52.268;5.192;2023-04-15T04:56:10;101029.34;;;4.32;82.43
74627;BME280;63132;52.268;5.192;2023-04-15T04:58:36;101030.22;;;4.33;82.65
74627;BME280;63132;52.268;5.192;2023-04-15T05:01:02;101032.22;;;4.28;82.38
74627;BME280;63132;52.268;5.192;2023-04-15T05:03:27;101045.41;;;4.28;82.74
74627;BME280;63132;52.268;5.192;2023-04-15T05:05:53;101045.78;;;4.20;83.23
74627;BME280;63132;52.268;5.192;2023-04-15T05:08:19;101051.97;;;4.36;83.04
74627;BME280;63132;52.268;5.192;2023-04-15T05:10:44;101052.88;;;4.35;82.68
74627;BME280;63132;52.268;5.192;2023-04-15T05:13:10;101056.63;;;4.31;82.89
74627;BME280;63132;52.268;5.192;2023-04-15T05:15:36;101066.72;;;4.41;82.43
74627;BME280;63132;52.268;5.192;2023-04-15T05:18:03;101068.41;;;4.42;82.35
74627;BME280;63132;52.268;5.192;2023-04-15T05:20:29;101064.78;;;4.44;82.30
74627;BME280;63132;52.268;5.192;2023-04-15T05:22:55;101071.81;;;4.44;82.66
74627;BME280;63132;52.268;5.192;2023-04-15T05:25:20;101069.19;;;4.44;82.17
74627;BME280;63132;52.268;5.192;2023-04-15T05:27:46;101069.28;;;4.42;82.44
74627;BME280;63132;52.268;5.192;2023-04-15T05:30:11;101081.66;;;4.40;82.71
74627;BME280;63132;52.268;5.192;2023-04-15T05:32:37;101083.84;;;4.49;82.47
74627;BME280;63132;52.268;5.192;2023-04-15T05:35:02;101085.78;;;4.46;82.34
74627;BME280;63132;52.268;5.192;2023-04-15T05:37:28;101093.22;;;4.55;82.34
74627;BME280;63132;52.268;5.192;2023-04-15T05:39:53;101094.38;;;4.49;82.52
74627;BME280;63132;52.268;5.192;2023-04-15T05:42:19;101096.72;;;4.56;82.89
74627;BME280;63132;52.268;5.192;2023-04-15T05:44:44;101098.66;;;4.52;82.53
74627;BME280;63132;52.268;5.192;2023-04-15T05:47:09;101103.22;;;4.48;83.15
74627;BME280;63132;52.268;5.192;2023-04-15T05:49:35;101108.41;;;4.50;82.99
74627;BME280;63132;52.268;5.192;2023-04-15T05:52:01;101110.03;;;4.53;82.85
74627;BME280;63132;52.268;5.192;2023-04-15T05:54:26;101113.44;;;4.55;82.79
74627;BME280;63132;52.268;5.192;2023-04-15T05:56:52;101119.28;;;4.61;82.95
74627;BME280;63132;52.268;5.192;2023-04-15T05:59:17;101128.94;;;4.61;83.03
74627;BME280;63132;52.268;5.192;2023-04-15T06:01:43;101123.47;;;4.66;82.91
74627;BME280;63132;52.268;5.192;2023-04-15T06:04:09;101135.63;;;4.68;83.08
74627;BME280;63132;52.268;5.192;2023-04-15T06:06:35;101140.19;;;4.65;82.99
74627;BME280;63132;52.268;5.192;2023-04-15T06:09:01;101146.88;;;4.72;83.25
74627;BME280;63132;52.268;5.192;2023-04-15T06:11:26;101142.28;;;4.76;83.05
74627;BME280;63132;52.268;5.192;2023-04-15T06:13:52;101153.53;;;4.79;83.07
74627;BME280;63132;52.268;5.192;2023-04-15T06:16:17;101156.13;;;4.81;83.10
74627;BME280;63132;52.268;5.192;2023-04-15T06:18:43;101163.16;;;4.80;83.15
74627;BME280;63132;52.268;5.192;2023-04-15T06:21:08;101172.63;;;4.84;82.90
74627;BME280;63132;52.268;5.192;2023-04-15T06:23:34;101179.69;;;4.84;83.21
74627;BME280;63132;52.268;5.192;2023-04-15T06:26:05;101176.19;;;4.83;83.24
74627;BME280;63132;52.268;5.192;2023-04-15T06:28:30;101177.91;;;4.84;82.72
74627;BME280;63132;52.268;5.192;2023-04-15T06:30:56;101180.16;;;4.92;82.73
74627;BME280;63132;52.268;5.192;2023-04-15T06:33:21;101176.03;;;5.04;82.33
74627;BME280;63132;52.268;5.192;2023-04-15T06:35:47;101189.09;;;5.07;82.31
74627;BME280;63132;52.268;5.192;2023-04-15T06:38:13;101188.44;;;5.20;81.74
74627;BME280;63132;52.268;5.192;2023-04-15T06:40:39;101188.66;;;5.33;81.42
74627;BME280;63132;52.268;5.192;2023-04-15T06:43:05;101187.38;;;5.42;81.04
74627;BME280;63132;52.268;5.192;2023-04-15T06:45:32;101199.44;;;5.46;80.83
74627;BME280;63132;52.268;5.192;2023-04-15T06:47:58;101199.81;;;5.56;80.35
74627;BME280;63132;52.268;5.192;2023-04-15T06:50:23;101198.72;;;5.60;79.96
74627;BME280;63132;52.268;5.192;2023-04-15T06:52:49;101205.31;;;5.69;79.69
74627;BME280;63132;52.268;5.192;2023-04-15T06:55:15;101208.50;;;5.76;79.47
74627;BME280;63132;52.268;5.192;2023-04-15T06:57:40;101208.22;;;5.80;79.58
74627;BME280;63132;52.268;5.192;2023-04-15T07:00:06;101202.81;;;5.84;79.48
74627;BME280;63132;52.268;5.192;2023-04-15T07:02:32;101221.41;;;5.98;78.82
74627;BME280;63132;52.268;5.192;2023-04-15T07:04:57;101223.34;;;6.12;78.29
74627;BME280;63132;52.268;5.192;2023-04-15T07:07:33;101218.41;;;6.22;77.94
74627;BME280;63132;52.268;5.192;2023-04-15T07:10:00;101221.56;;;6.29;77.58
74627;BME280;63132;52.268;5.192;2023-04-15T07:12:26;101228.53;;;6.46;76.82
74627;BME280;63132;52.268;5.192;2023-04-15T07:14:52;101234.19;;;6.56;76.10
74627;BME280;63132;52.268;5.192;2023-04-15T07:17:17;101238.94;;;6.66;75.22
74627;BME280;63132;52.268;5.192;2023-04-15T07:19:45;101242.59;;;6.79;74.68
74627;BME280;63132;52.268;5.192;2023-04-15T07:22:13;101245.97;;;6.97;73.55
74627;BME280;63132;52.268;5.192;2023-04-15T07:24:49;101247.16;;;7.08;73.08
74627;BME280;63132;52.268;5.192;2023-04-15T07:27:23;101249.19;;;7.03;72.56
74627;BME280;63132;52.268;5.192;2023-04-15T07:29:50;101251.50;;;7.09;72.52
74627;BME280;63132;52.268;5.192;2023-04-15T07:32:16;101264.19;;;7.18;72.13
74627;BME280;63132;52.268;5.192;2023-04-15T07:34:41;101264.72;;;7.25;71.06
74627;BME280;63132;52.268;5.192;2023-04-15T07:37:07;101262.28;;;7.37;70.98
74627;BME280;63132;52.268;5.192;2023-04-15T07:39:32;101271.00;;;7.39;70.72
74627;BME280;63132;52.268;5.192;2023-04-15T07:41:58;101274.69;;;7.51;70.58
74627;BME280;63132;52.268;5.192;2023-04-15T07:44:24;101272.09;;;7.65;68.67
74627;BME280;63132;52.268;5.192;2023-04-15T07:46:50;101281.25;;;7.74;69.24
74627;BME280;63132;52.268;5.192;2023-04-15T07:49:16;101272.75;;;7.84;69.28
74627;BME280;63132;52.268;5.192;2023-04-15T07:51:43;101278.44;;;7.92;69.01
74627;BME280;63132;52.268;5.192;2023-04-15T07:54:08;101292.81;;;8.02;68.97
74627;BME280;63132;52.268;5.192;2023-04-15T07:56:35;101292.16;;;7.99;68.47
74627;BME280;63132;52.268;5.192;2023-04-15T07:59:00;101289.50;;;7.99;68.59
74627;BME280;63132;52.268;5.192;2023-04-15T08:01:29;101298.88;;;8.04;68.69
74627;BME280;63132;52.268;5.192;2023-04-15T08:03:54;101301.44;;;8.06;68.43
74627;BME280;63132;52.268;5.192;2023-04-15T08:06:20;101313.56;;;8.10;68.19
74627;BME280;63132;52.268;5.192;2023-04-15T08:08:45;101308.34;;;8.23;68.23
74627;BME280;63132;52.268;5.192;2023-04-15T08:11:11;101314.50;;;8.09;68.08
74627;BME280;63132;52.268;5.192;2023-04-15T08:13:37;101313.53;;;8.25;67.69
74627;BME280;63132;52.268;5.192;2023-04-15T08:16:21;101316.97;;;8.27;67.91
74627;BME280;63132;52.268;5.192;2023-04-15T08:18:48;101328.16;;;8.32;67.63
74627;BME280;63132;52.268;5.192;2023-04-15T08:21:14;101316.22;;;8.39;67.75
74627;BME280;63132;52.268;5.192;2023-04-15T08:23:40;101320.94;;;8.49;67.55
74627;BME280;63132;52.268;5.192;2023-04-15T08:26:05;101330.22;;;8.56;65.98
74627;BME280;63132;52.268;5.192;2023-04-15T08:28:31;101341.00;;;8.53;65.69
74627;BME280;63132;52.268;5.192;2023-04-15T08:30:57;101328.88;;;8.49;65.72
74627;BME280;63132;52.268;5.192;2023-04-15T08:33:22;101345.25;;;8.56;65.25
74627;BME280;63132;52.268;5.192;2023-04-15T08:35:48;101345.94;;;8.59;65.77
74627;BME280;63132;52.268;5.192;2023-04-15T08:38:14;101342.47;;;8.59;65.59
74627;BME280;63132;52.268;5.192;2023-04-15T08:40:45;101340.91;;;8.55;64.95
74627;BME280;63132;52.268;5.192;2023-04-15T08:43:26;101358.28;;;8.60;65.07
74627;BME280;63132;52.268;5.192;2023-04-15T08:45:54;101348.88;;;8.69;65.60
74627;BME280;63132;52.268;5.192;2023-04-15T08:48:20;101350.84;;;8.80;65.17
74627;BME280;63132;52.268;5.192;2023-04-15T08:50:47;101360.78;;;8.91;64.39
74627;BME280;63132;52.268;5.192;2023-04-15T08:53:14;101371.09;;;8.96;64.07
74627;BME280;63132;52.268;5.192;2023-04-15T08:55:44;101367.41;;;8.98;62.50
74627;BME280;63132;52.268;5.192;2023-04-15T08:58:11;101369.03;;;9.01;62.38
74627;BME280;63132;52.268;5.192;2023-04-15T09:00:38;101383.59;;;9.08;62.54
74627;BME280;63132;52.268;5.192;2023-04-15T09:03:04;101375.38;;;9.26;62.22
74627;BME280;63132;52.268;5.192;2023-04-15T09:05:37;101390.13;;;9.45;61.61
74627;BME280;63132;52.268;5.192;2023-04-15T09:08:03;101383.19;;;9.42;60.26
74627;BME280;63132;52.268;5.192;2023-04-15T09:10:30;101388.63;;;9.41;60.32
74627;BME280;63132;52.268;5.192;2023-04-15T09:12:56;101391.94;;;9.57;60.07
74627;BME280;63132;52.268;5.192;2023-04-15T09:15:24;101386.13;;;9.65;59.17
74627;BME280;63132;52.268;5.192;2023-04-15T09:17:49;101400.13;;;9.54;59.20
74627;BME280;63132;52.268;5.192;2023-04-15T09:20:15;101396.34;;;9.71;59.62
74627;BME280;63132;52.268;5.192;2023-04-15T09:22:44;101392.50;;;9.63;59.94
74627;BME280;63132;52.268;5.192;2023-04-15T09:27:52;101430.91;;;9.71;59.46
74627;BME280;63132;52.268;5.192;2023-04-15T09:30:18;101411.13;;;9.76;59.72
74627;BME280;63132;52.268;5.192;2023-04-15T09:32:58;101412.69;;;10.06;59.89
74627;BME280;63132;52.268;5.192;2023-04-15T09:35:25;101420.84;;;9.90;60.31
74627;BME280;63132;52.268;5.192;2023-04-15T09:37:52;101418.28;;;9.88;60.26
74627;BME280;63132;52.268;5.192;2023-04-15T09:40:37;101417.22;;;9.91;60.57
74627;BME280;63132;52.268;5.192;2023-04-15T09:43:04;101416.41;;;10.16;60.77
74627;BME280;63132;52.268;5.192;2023-04-15T09:45:31;101423.44;;;10.30;60.71
74627;BME280;63132;52.268;5.192;2023-04-15T09:47:58;101431.09;;;10.35;59.87
74627;BME280;63132;52.268;5.192;2023-04-15T09:50:28;101443.25;;;10.52;60.73
74627;BME280;63132;52.268;5.192;2023-04-15T09:52:57;101435.13;;;10.28;60.79
74627;BME280;63132;52.268;5.192;2023-04-15T09:55:23;101442.59;;;10.36;60.64
74627;BME280;63132;52.268;5.192;2023-04-15T09:57:49;101457.03;;;10.32;61.10
74627;BME280;63132;52.268;5.192;2023-04-15T10:00:14;101445.41;;;10.06;62.05
74627;BME280;63132;52.268;5.192;2023-04-15T10:02:40;101446.50;;;10.17;62.54
74627;BME280;63132;52.268;5.192;2023-04-15T10:05:13;101464.25;;;10.16;62.24
74627;BME280;63132;52.268;5.192;2023-04-15T10:07:40;101449.69;;;10.09;62.36
74627;BME280;63132;52.268;5.192;2023-04-15T10:10:07;101460.66;;;10.17;63.03
74627;BME280;63132;52.268;5.192;2023-04-15T10:12:35;101463.75;;;10.24;63.04
74627;BME280;63132;52.268;5.192;2023-04-15T10:15:04;101463.63;;;10.39;61.74
74627;BME280;63132;52.268;5.192;2023-04-15T10:17:32;101464.28;;;10.29;62.15
74627;BME280;63132;52.268;5.192;2023-04-15T10:20:03;101478.13;;;10.35;62.31
74627;BME280;63132;52.268;5.192;2023-04-15T10:22:30;101475.53;;;10.20;63.29
74627;BME280;63132;52.268;5.192;2023-04-15T10:24:56;101475.88;;;10.28;63.05
74627;BME280;63132;52.268;5.192;2023-04-15T10:27:22;101472.13;;;10.31;63.20
74627;BME280;63132;52.268;5.192;2023-04-15T10:29:49;101482.09;;;10.68;62.08
74627;BME280;63132;52.268;5.192;2023-04-15T10:32:16;101483.38;;;10.49;62.06
74627;BME280;63132;52.268;5.192;2023-04-15T10:34:44;101475.47;;;10.48;63.14
74627;BME280;63132;52.268;5.192;2023-04-15T10:37:10;101486.34;;;10.84;61.64
74627;BME280;63132;52.268;5.192;2023-04-15T10:42:07;101488.91;;;10.72;61.95
74627;BME280;63132;52.268;5.192;2023-04-15T10:44:35;101510.50;;;10.81;60.13
74627;BME280;63132;52.268;5.192;2023-04-15T10:47:05;101501.66;;;11.06;60.12
74627;BME280;63132;52.268;5.192;2023-04-15T10:49:31;101495.06;;;10.99;61.33
74627;BME280;63132;52.268;5.192;2023-04-15T10:51:58;101507.31;;;10.75;62.01
74627;BME280;63132;52.268;5.192;2023-04-15T10:59:30;101512.13;;;10.70;61.88
74627;BME280;63132;52.268;5.192;2023-04-15T11:02:00;101515.94;;;10.79;63.28
74627;BME280;63132;52.268;5.192;2023-04-15T11:10:02;101521.34;;;11.30;60.82
74627;BME280;63132;52.268;5.192;2023-04-15T11:12:35;101507.97;;;11.43;60.54
74627;BME280;63132;52.268;5.192;2023-04-15T11:17:51;101528.34;;;11.31;59.33
74627;BME280;63132;52.268;5.192;2023-04-15T11:20:17;101516.88;;;11.17;58.65
74627;BME280;63132;52.268;5.192;2023-04-15T11:22:47;101518.50;;;11.07;58.33
74627;BME280;63132;52.268;5.192;2023-04-15T11:25:27;101524.88;;;10.91;58.53
74627;BME280;63132;52.268;5.192;2023-04-15T11:27:53;101526.25;;;11.10;58.19
74627;BME280;63132;52.268;5.192;2023-04-15T11:30:24;101529.00;;;11.21;58.63
74627;BME280;63132;52.268;5.192;2023-04-15T11:32:50;101546.72;;;10.96;58.33
74627;BME280;63132;52.268;5.192;2023-04-15T11:35:20;101554.38;;;10.75;58.91
74627;BME280;63132;52.268;5.192;2023-04-15T11:37:47;101541.16;;;10.60;60.21
74627;BME280;63132;52.268;5.192;2023-04-15T11:40:13;101549.38;;;10.96;59.85
74627;BME280;63132;52.268;5.192;2023-04-15T11:42:39;101556.50;;;10.83;59.14
74627;BME280;63132;52.268;5.192;2023-04-15T11:45:07;101549.06;;;10.88;59.75
74627;BME280;63132;52.268;5.192;2023-04-15T11:47:34;101559.59;;;11.03;58.68
74627;BME280;63132;52.268;5.192;2023-04-15T11:52:38;101567.81;;;10.99;58.69
74627;BME280;63132;52.268;5.192;2023-04-15T11:55:04;101572.16;;;11.13;58.18
74627;BME280;63132;52.268;5.192;2023-04-15T11:57:31;101559.38;;;11.06;58.33
74627;BME280;63132;52.268;5.192;2023-04-15T11:59:56;101567.56;;;11.16;58.81
74627;BME280;63132;52.268;5.192;2023-04-15T12:02:30;101568.22;;;10.67;59.46
74627;BME280;63132;52.268;5.192;2023-04-15T12:05:03;101571.00;;;10.92;58.47
74627;BME280;63132;52.268;5.192;2023-04-15T12:07:29;101573.56;;;10.93;58.29
74627;BME280;63132;52.268;5.192;2023-04-15T12:09:55;101568.34;;;11.05;58.42
74627;BME280;63132;52.268;5.192;2023-04-15T12:12:26;101578.63;;;11.48;58.26
74627;BME280;63132;52.268;5.192;2023-04-15T12:14:51;101591.84;;;11.37;58.41
74627;BME280;63132;52.268;5.192;2023-04-15T12:17:17;101579.00;;;11.05;59.24
74627;BME280;63132;52.268;5.192;2023-04-15T12:19:42;101581.75;;;11.29;58.76
74627;BME280;63132;52.268;5.192;2023-04-15T12:22:14;101606.22;;;11.47;57.35
74627;BME280;63132;52.268;5.192;2023-04-15T12:24:41;101582.88;;;11.51;58.47
74627;BME280;63132;52.268;5.192;2023-04-15T12:27:12;101590.38;;;11.70;57.60
74627;BME280;63132;52.268;5.192;2023-04-15T12:29:39;101591.44;;;11.81;57.09
74627;BME280;63132;52.268;5.192;2023-04-15T12:32:07;101601.13;;;11.82;57.51
74627;BME280;63132;52.268;5.192;2023-04-15T12:34:45;101598.84;;;11.64;57.17
74627;BME280;63132;52.268;5.192;2023-04-15T12:37:13;101596.53;;;11.46;59.37
74627;BME280;63132;52.268;5.192;2023-04-15T12:39:41;101596.75;;;11.81;58.38
74627;BME280;63132;52.268;5.192;2023-04-15T12:42:08;101605.59;;;11.31;59.94
74627;BME280;63132;52.268;5.192;2023-04-15T12:44:34;101611.66;;;11.33;60.30
74627;BME280;63132;52.268;5.192;2023-04-15T12:47:01;101613.66;;;11.68;59.15
74627;BME280;63132;52.268;5.192;2023-04-15T12:49:27;101625.91;;;11.58;59.24
74627;BME280;63132;52.268;5.192;2023-04-15T12:51:54;101624.97;;;11.46;57.55
74627;BME280;63132;52.268;5.192;2023-04-15T12:54:20;101632.22;;;11.31;58.15
74627;BME280;63132;52.268;5.192;2023-04-15T12:56:47;101631.91;;;11.48;58.17
74627;BME280;63132;52.268;5.192;2023-04-15T12:59:13;101640.03;;;11.84;57.15
74627;BME280;63132;52.268;5.192;2023-04-15T13:01:39;101643.88;;;11.80;57.45
74627;BME280;63132;52.268;5.192;2023-04-15T13:04:04;101636.81;;;11.42;57.65
74627;BME280;63132;52.268;5.192;2023-04-15T13:06:30;101653.84;;;11.00;59.11
74627;BME280;63132;52.268;5.192;2023-04-15T13:08:58;101648.56;;;11.26;58.45
74627;BME280;63132;52.268;5.192;2023-04-15T13:11:25;101654.91;;;11.49;58.26
74627;BME280;63132;52.268;5.192;2023-04-15T13:13:51;101651.06;;;11.54;57.62
74627;BME280;63132;52.268;5.192;2023-04-15T13:16:17;101653.63;;;11.68;56.52